createdAt,value
2022-10-25T00:03:35.191Z,1.10
2022-10-25T00:13:36.563Z,1.25
2022-10-25T00:23:37.934Z,1.17
2022-10-25T00:33:39.285Z,1.30
2022-10-25T00:43:40.679Z,1.25
2022-10-25T00:53:42.060Z,1.50
2022-10-25T01:03:43.402Z,1.60
2022-10-25T01:13:44.788Z,1.20
2022-10-25T01:23:46.353Z,1.98
2022-10-25T01:33:47.686Z,1.75
2022-10-25T01:43:49.307Z,1.67
2022-10-25T01:53:50.805Z,1.60
2022-10-25T02:03:52.297Z,2.35
2022-10-25T02:13:53.900Z,2.00
2022-10-25T02:23:55.355Z,2.88
2022-10-25T02:33:56.687Z,2.40
2022-10-25T02:43:58.019Z,2.20
2022-10-25T02:53:59.572Z,2.38
2022-10-25T03:04:00.950Z,2.53
2022-10-25T03:14:02.292Z,2.72
2022-10-25T03:24:03.619Z,3.70
2022-10-25T03:34:04.939Z,3.28
2022-10-25T03:44:06.229Z,2.80
2022-10-25T03:54:07.582Z,2.53
2022-10-25T04:04:08.908Z,2.67
2022-10-25T04:14:10.247Z,2.95
2022-10-25T04:24:11.509Z,3.60
2022-10-25T04:34:12.824Z,2.97
2022-10-25T04:44:14.375Z,3.42
2022-10-25T04:54:15.726Z,3.17
2022-10-25T05:04:17.081Z,3.20
2022-10-25T05:14:18.412Z,3.20
2022-10-25T05:24:19.826Z,3.30
2022-10-25T05:34:21.176Z,3.05
2022-10-25T05:44:22.580Z,3.28
2022-10-25T05:54:24.312Z,3.50
2022-10-25T06:04:25.690Z,3.60
2022-10-25T06:14:29.298Z,3.17
2022-10-25T06:24:31.259Z,3.60
2022-10-25T06:34:34.087Z,5.00
2022-10-25T06:44:35.732Z,4.55
2022-10-25T06:54:37.282Z,4.78
2022-10-25T07:04:38.602Z,4.65
2022-10-25T07:14:40.122Z,3.60
2022-10-25T07:24:41.653Z,3.47
2022-10-25T07:34:43.229Z,1.98
2022-10-25T07:54:46.064Z,2.00
2022-10-25T08:04:49.116Z,1.90
2022-10-25T08:14:52.543Z,1.88
2022-10-25T08:24:53.916Z,2.15
2022-10-25T08:34:55.227Z,2.08
2022-10-25T08:44:56.576Z,1.73
2022-10-25T08:55:00.402Z,2.00
2022-10-25T09:05:04.819Z,1.70
2022-10-25T09:15:06.230Z,1.42
2022-10-25T09:25:07.794Z,1.92
2022-10-25T09:35:09.172Z,1.23
2022-10-25T09:45:10.521Z,2.03
2022-10-25T09:55:11.829Z,1.10
2022-10-25T10:05:13.157Z,1.33
2022-10-25T10:15:14.473Z,1.20
2022-10-25T10:25:15.811Z,1.65
2022-10-25T10:35:17.121Z,1.27
2022-10-25T10:45:18.528Z,1.65
2022-10-25T10:55:20.107Z,1.52
2022-10-25T11:05:21.559Z,1.40
2022-10-25T11:15:22.910Z,1.30
2022-10-25T11:25:25.792Z,1.75
2022-10-25T11:35:27.239Z,1.70
2022-10-25T11:45:28.602Z,1.27
2022-10-25T11:55:30.019Z,1.52
2022-10-25T12:05:31.286Z,1.42
2022-10-25T12:15:32.687Z,1.60
2022-10-25T12:25:34.077Z,1.42
2022-10-25T12:35:35.419Z,1.55
2022-10-25T12:45:36.737Z,1.60
2022-10-25T12:55:38.133Z,2.30
2022-10-25T13:05:39.541Z,2.05
2022-10-25T13:15:40.931Z,1.70
2022-10-25T13:25:42.260Z,2.08
2022-10-25T13:35:43.836Z,1.63
2022-10-25T13:45:45.156Z,1.30
2022-10-25T13:55:46.760Z,2.22
2022-10-25T14:05:48.151Z,1.70
2022-10-25T14:15:49.631Z,1.20
2022-10-25T14:25:51.222Z,1.55
2022-10-25T14:35:52.548Z,1.40
2022-10-25T14:45:53.933Z,6.63
2022-10-25T14:55:55.253Z,1.75
2022-10-25T15:05:56.629Z,2.08
2022-10-25T15:15:57.937Z,1.60
2022-10-25T15:25:59.898Z,2.10
2022-10-25T15:36:01.733Z,1.90
2022-10-25T15:46:03.054Z,2.20
2022-10-25T15:56:04.395Z,2.10
2022-10-25T16:06:05.778Z,2.15
2022-10-25T16:16:21.863Z,1.75
2022-10-25T16:26:28.644Z,2.55
2022-10-25T16:36:29.908Z,5.20
2022-10-25T16:46:31.245Z,7.05
2022-10-25T16:56:32.658Z,4.70
2022-10-25T17:06:42.446Z,6.70
2022-10-25T17:16:44.506Z,5.00
2022-10-25T17:26:45.934Z,5.13
2022-10-25T17:36:47.369Z,6.15
2022-10-25T17:46:48.868Z,4.60
2022-10-25T17:56:50.282Z,4.82
2022-10-25T18:06:51.717Z,7.78
2022-10-25T18:16:53.091Z,7.28
2022-10-25T18:26:54.504Z,9.95
2022-10-25T18:36:55.916Z,7.13
2022-10-25T18:46:57.245Z,6.57
2022-10-25T18:56:58.591Z,5.45
2022-10-25T19:06:59.835Z,8.40
2022-10-25T19:17:01.141Z,5.55
2022-10-25T19:27:02.555Z,5.40
2022-10-25T19:37:04.570Z,5.00
2022-10-25T19:47:05.893Z,5.00
2022-10-25T19:57:07.323Z,5.57
2022-10-25T20:07:08.666Z,7.28
2022-10-25T20:17:10.068Z,6.18
2022-10-25T20:27:11.440Z,5.15
2022-10-25T20:37:12.771Z,7.10
2022-10-25T20:47:14.254Z,8.25
2022-10-25T20:57:15.607Z,7.32
2022-10-25T21:07:16.963Z,6.28
2022-10-25T21:17:18.456Z,6.10
2022-10-25T21:27:19.803Z,5.85
2022-10-25T21:37:21.042Z,5.13
2022-10-25T21:47:22.448Z,8.13
2022-10-25T21:57:23.781Z,5.05
2022-10-25T22:07:25.093Z,5.80
2022-10-25T22:17:26.489Z,4.75
2022-10-25T22:27:29.024Z,5.10
2022-10-25T22:37:30.364Z,4.50
2022-10-25T22:47:31.702Z,4.88
2022-10-25T22:57:33.233Z,5.05
2022-10-25T23:07:34.671Z,5.30
2022-10-25T23:17:36.342Z,5.45
2022-10-25T23:27:37.727Z,4.47
2022-10-25T23:37:39.178Z,4.55
2022-10-25T23:47:40.871Z,4.32
2022-10-25T23:57:42.857Z,4.70
